Time;durP1;ratioP1;P1;durP2;ratioP2;P2;SDS_P1;SDS_P2;PMS_P1;PMS_P2;Temp;Humidity;BMP_temperature;BMP_pressure;BME280_temperature;BME280_humidity;BME280_pressure;Samples;Min_cycle;Max_cycle;Signal;HPM_P1;HPM_P2
2021/04/20 00:02:03;;;;;;;3.17;2.05;;;;;;;19.05;50.90;100075.06;1708400;82;21249;-58
2021/04/20 00:04:30;;;;;;;2.33;2.10;;;;;;;19.05;50.93;100079.20;1714689;82;21233;-58
2021/04/20 00:06:57;;;;;;;2.85;1.80;;;;;;;19.06;50.96;100076.70;1710516;83;21193;-58
2021/04/20 00:09:23;;;;;;;2.70;2.00;;;;;;;19.06;50.95;100079.45;1720393;82;21162;-58
2021/04/20 00:11:50;;;;;;;4.75;2.10;;;;;;;19.06;50.95;100075.88;1709358;82;21193;-58
2021/04/20 00:14:16;;;;;;;3.08;1.87;;;;;;;19.06;50.96;100075.88;1712432;82;21213;-58
2021/04/20 00:16:43;;;;;;;4.53;1.82;;;;;;;19.05;50.97;100075.66;1739017;80;21636;-58
2021/04/20 00:19:10;;;;;;;3.00;2.17;;;;;;;19.03;50.98;100077.35;1716942;81;21265;-58
2021/04/20 00:21:36;;;;;;;2.60;1.82;;;;;;;19.02;51.01;100074.91;1739950;80;21189;-58
2021/04/20 00:24:04;;;;;;;2.87;2.15;;;;;;;19.01;51.03;100069.17;1712798;82;21217;-58
2021/04/20 00:26:30;;;;;;;2.70;1.70;;;;;;;18.99;51.05;100068.67;1712454;82;21232;-59
2021/04/20 00:28:57;;;;;;;2.45;1.80;;;;;;;18.99;51.08;100069.48;1713554;82;22151;-58
2021/04/20 00:31:23;;;;;;;3.47;2.08;;;;;;;19.00;51.09;100071.12;1709195;82;22842;-58
2021/04/20 00:33:49;;;;;;;2.27;1.42;;;;;;;19.00;51.08;100072.50;1710150;82;21169;-58
2021/04/20 00:36:16;;;;;;;3.40;1.98;;;;;;;19.01;51.10;100071.93;1734838;80;21266;-58
2021/04/20 00:38:42;;;;;;;3.25;2.17;;;;;;;19.01;51.11;100073.31;1725870;81;21249;-58
2021/04/20 00:41:12;;;;;;;3.05;2.00;;;;;;;18.99;51.10;100069.48;1723449;81;21215;-58
2021/04/20 00:43:45;;;;;;;2.98;1.80;;;;;;;18.99;51.13;100070.05;1732138;81;21203;-58
2021/04/20 00:46:15;;;;;;;2.60;1.90;;;;;;;18.97;51.14;100065.41;1728289;81;21190;-58
2021/04/20 00:48:41;;;;;;;2.47;1.85;;;;;;;18.96;51.16;100066.57;1735222;81;21662;-58
2021/04/20 00:51:09;;;;;;;3.95;2.20;;;;;;;18.94;51.16;100065.51;1727727;81;21641;-58
2021/04/20 00:53:37;;;;;;;2.80;2.00;;;;;;;18.94;51.20;100065.51;1732580;81;21704;-58
2021/04/20 00:56:08;;;;;;;2.27;1.67;;;;;;;18.95;51.23;100068.52;1713673;82;21529;-58
2021/04/20 00:58:35;;;;;;;3.17;1.95;;;;;;;18.95;51.23;100067.70;1715693;82;21188;-58
2021/04/20 01:01:01;;;;;;;3.02;2.12;;;;;;;18.96;51.24;100068.77;1705690;82;21209;-58
2021/04/20 01:03:28;;;;;;;2.87;2.15;;;;;;;18.96;51.24;100070.70;1717008;82;21118;-58
2021/04/20 01:05:54;;;;;;;2.42;1.95;;;;;;;18.95;51.24;100067.70;1712843;82;22242;-58
2021/04/20 01:08:23;;;;;;;2.52;1.85;;;;;;;18.94;51.24;100063.31;1709829;82;21660;-59
2021/04/20 01:10:53;;;;;;;3.55;2.12;;;;;;;18.93;51.24;100063.87;1713896;82;21714;-58
2021/04/20 01:13:24;;;;;;;2.65;1.80;;;;;;;18.92;51.26;100066.41;1733144;80;21843;-58
2021/04/20 01:15:52;;;;;;;2.90;2.10;;;;;;;18.91;51.28;100064.78;1713230;82;21162;-59
2021/04/20 01:18:26;;;;;;;4.72;2.10;;;;;;;18.90;51.30;100066.48;1717285;82;21044;-58
2021/04/20 01:21:00;;;;;;;3.20;1.87;;;;;;;18.89;51.34;100062.91;1712306;82;21164;-58
2021/04/20 01:24:04;;;;;;;2.85;2.30;;;;;;;18.89;51.35;100060.72;1708216;82;21141;-58
2021/04/20 01:26:36;;;;;;;1.92;1.57;;;;;;;18.90;51.34;100063.16;1711896;81;21157;-58
2021/04/20 01:29:03;;;;;;;3.45;2.02;;;;;;;18.89;51.34;100064.84;1716099;82;21140;-58
2021/04/20 01:31:31;;;;;;;2.42;1.80;;;;;;;18.88;51.35;100064.06;1676614;83;21218;-59
2021/04/20 01:33:58;;;;;;;2.20;1.70;;;;;;;18.87;51.36;100059.68;1740903;80;21157;-58
2021/04/20 01:36:26;;;;;;;3.62;1.98;;;;;;;18.87;51.37;100065.75;1730514;81;21211;-58
2021/04/20 01:38:53;;;;;;;2.65;1.95;;;;;;;18.86;51.38;100062.75;1736427;81;21175;-58
2021/04/20 01:41:21;;;;;;;2.85;2.22;;;;;;;18.84;51.39;100063.06;1729456;81;21191;-58
2021/04/20 01:43:50;;;;;;;2.70;1.92;;;;;;;18.83;51.42;100060.65;1733163;81;22020;-58
2021/04/20 01:46:17;;;;;;;3.05;2.10;;;;;;;18.83;51.47;100065.59;1717192;83;21513;-58
2021/04/20 01:48:45;;;;;;;3.55;2.10;;;;;;;18.83;51.48;100071.11;1714327;82;21184;-56
2021/04/20 01:51:13;;;;;;;3.10;2.10;;;;;;;18.84;51.51;100069.17;1724261;82;21157;-56
2021/04/20 01:53:40;;;;;;;2.90;2.15;;;;;;;18.85;51.50;100068.01;1730083;81;21235;-56
2021/04/20 01:56:08;;;;;;;3.27;1.95;;;;;;;18.85;51.48;100072.95;1731936;81;21217;-56
2021/04/20 01:58:37;;;;;;;2.72;1.80;;;;;;;18.85;51.48;100072.14;1730883;81;21154;-56
2021/04/20 02:01:08;;;;;;;2.87;1.87;;;;;;;18.83;51.50;100069.73;1730978;81;21211;-57
2021/04/20 02:03:34;;;;;;;3.72;1.82;;;;;;;18.82;51.52;100066.72;1726273;81;21162;-57
2021/04/20 02:06:01;;;;;;;2.35;1.57;;;;;;;18.82;51.50;100070.86;1720548;81;21215;-56
2021/04/20 02:08:28;;;;;;;2.80;2.15;;;;;;;18.79;51.52;100063.25;1733672;81;22148;-56
2021/04/20 02:10:58;;;;;;;2.87;2.10;;;;;;;18.78;51.56;100057.48;1731463;81;21159;-56
2021/04/20 02:13:26;;;;;;;4.17;2.12;;;;;;;18.78;51.58;100061.61;1724490;81;33693;-56
2021/04/20 02:15:53;;;;;;;2.85;2.10;;;;;;;18.78;51.59;100061.61;1726482;81;21479;-56
2021/04/20 02:18:20;;;;;;;2.60;2.05;;;;;;;18.79;51.58;100055.55;1734454;81;21216;-56
2021/04/20 02:20:46;;;;;;;3.17;2.27;;;;;;;18.79;51.58;100056.92;1729038;81;22129;-56
2021/04/20 02:23:14;;;;;;;2.92;2.10;;;;;;;18.79;51.58;100059.67;1732167;81;21624;-56
2021/04/20 02:25:43;;;;;;;3.72;2.17;;;;;;;18.79;51.59;100066.56;1710140;83;21234;-56
2021/04/20 02:28:10;;;;;;;2.85;1.90;;;;;;;18.78;51.59;100057.48;1722827;81;21255;-56
2021/04/20 02:30:36;;;;;;;4.37;2.05;;;;;;;18.76;51.61;100057.55;1729371;81;21534;-56
2021/04/20 02:33:04;;;;;;;3.62;2.00;;;;;;;18.75;51.62;100059.52;1717308;81;21582;-56
2021/04/20 02:35:31;;;;;;;3.50;2.50;;;;;;;18.74;51.65;100064.77;1719514;81;21181;-56
2021/04/20 02:37:59;;;;;;;2.60;1.95;;;;;;;18.71;51.64;100057.95;1716253;81;21147;-57
2021/04/20 02:40:30;;;;;;;2.58;2.08;;;;;;;18.75;51.68;100060.08;1717582;81;21163;-56
2021/04/20 02:42:57;;;;;;;3.77;2.20;;;;;;;18.74;51.67;100059.27;1722730;81;21211;-58
2021/04/20 02:45:25;;;;;;;3.22;2.27;;;;;;;18.75;51.69;100061.45;1719410;82;21254;-57
2021/04/20 02:47:52;;;;;;;3.42;2.37;;;;;;;18.75;51.67;100060.89;1716247;82;21228;-57
2021/04/20 02:50:22;;;;;;;3.25;2.25;;;;;;;18.73;51.69;100060.39;1713620;82;21561;-57
2021/04/20 02:52:49;;;;;;;2.45;2.00;;;;;;;18.73;51.67;100063.14;1726993;82;21196;-57
2021/04/20 02:55:16;;;;;;;3.95;2.40;;;;;;;18.71;51.68;100062.08;1696178;83;21185;-57
2021/04/20 02:57:46;;;;;;;3.08;2.08;;;;;;;18.71;51.70;100070.94;1703020;83;21560;-57
2021/04/20 03:00:17;;;;;;;3.35;2.17;;;;;;;18.69;51.70;100063.55;1703627;83;21121;-57
2021/04/20 03:02:45;;;;;;;3.17;2.17;;;;;;;18.68;51.74;100066.05;1674316;83;21202;-57
2021/04/20 03:05:14;;;;;;;3.58;2.45;;;;;;;18.67;51.76;100060.32;1728774;82;22110;-58
2021/04/20 03:07:42;;;;;;;3.92;2.22;;;;;;;18.67;51.77;100073.50;1707750;83;21459;-57
2021/04/20 03:10:11;;;;;;;4.22;2.67;;;;;;;18.68;51.77;100069.62;1701639;83;22166;-57
2021/04/20 03:12:39;;;;;;;2.87;2.33;;;;;;;18.69;51.78;100064.36;1725365;82;21137;-57
2021/04/20 03:15:12;;;;;;;3.33;2.40;;;;;;;18.69;51.76;100069.05;1700119;83;21095;-57
2021/04/20 03:17:40;;;;;;;3.22;2.45;;;;;;;18.69;51.76;100074.56;1702710;83;21174;-57
2021/04/20 03:20:09;;;;;;;4.05;2.50;;;;;;;18.67;51.75;100074.87;1701038;83;21181;-57
2021/04/20 03:22:36;;;;;;;2.80;2.17;;;;;;;18.66;51.76;100081.55;1726835;82;21809;-57
2021/04/20 03:25:09;;;;;;;2.72;2.08;;;;;;;18.65;51.76;100079.10;1690303;83;21629;-57
2021/04/20 03:27:36;;;;;;;4.03;2.20;;;;;;;18.64;51.77;100078.84;1703572;82;21202;-57
2021/04/20 03:30:07;;;;;;;4.05;2.17;;;;;;;18.63;51.81;100084.11;1712260;82;21660;-57
2021/04/20 03:32:33;;;;;;;;;;;;;;;18.63;51.83;100086.86;1720738;82;21146;-58
2021/04/20 03:35:24;;;;;;;3.20;2.12;;;;;;;18.63;51.84;100085.48;1716968;82;21152;-57
2021/04/20 03:38:11;;;;;;;3.08;2.37;;;;;;;18.63;51.83;100086.86;1718243;82;21991;-57
2021/04/20 03:40:38;;;;;;;3.10;2.35;;;;;;;18.63;51.83;100099.27;1709027;82;21138;-57
2021/04/20 03:43:09;;;;;;;3.55;2.27;;;;;;;18.63;51.83;100088.23;1707407;82;21193;-57
2021/04/20 03:45:44;;;;;;;2.65;2.22;;;;;;;18.61;51.83;100095.47;1736665;80;21233;-58
2021/04/20 03:48:18;;;;;;;3.83;2.37;;;;;;;18.60;51.83;100099.34;1688786;82;21230;-57
2021/04/20 03:50:52;;;;;;;3.70;2.50;;;;;;;18.58;51.86;100100.25;1690970;82;21598;-57
2021/04/20 03:53:19;;;;;;;3.25;2.58;;;;;;;18.57;51.87;100098.63;1707631;83;21141;-57
2021/04/20 03:55:49;;;;;;;3.37;2.40;;;;;;;18.57;51.88;100099.19;1706887;82;21164;-57
2021/04/20 03:58:17;;;;;;;3.55;2.40;;;;;;;18.57;51.90;100100.56;1721815;82;21021;-58
2021/04/20 04:00:55;;;;;;;4.47;2.72;;;;;;;18.57;51.95;100108.83;1719765;82;21133;-58
2021/04/20 04:03:24;;;;;;;3.77;2.62;;;;;;;18.59;51.94;100105.17;1700531;83;21376;-60
2021/04/20 04:05:51;;;;;;;4.15;2.60;;;;;;;18.59;51.93;100104.61;1718313;82;21245;-58
2021/04/20 04:08:17;;;;;;;3.08;2.50;;;;;;;18.61;51.94;100105.11;1716771;82;21992;-58
2021/04/20 04:10:44;;;;;;;3.22;2.60;;;;;;;18.65;51.93;100107.47;1706655;82;21312;-58
2021/04/20 04:13:11;;;;;;;2.70;2.25;;;;;;;18.69;51.91;100108.45;1715046;82;21518;-58
2021/04/20 04:15:38;;;;;;;3.08;2.40;;;;;;;18.75;51.88;100110.49;1695548;83;21264;-58
2021/04/20 04:18:08;;;;;;;3.42;2.30;;;;;;;18.80;51.85;100105.39;1738851;82;21042;-58
2021/04/20 04:20:35;;;;;;;3.65;2.50;;;;;;;18.85;51.81;100106.59;1683553;82;21229;-59
2021/04/20 04:23:27;;;;;;;3.58;2.42;;;;;;;18.90;51.77;100114.71;1698667;83;21279;-58
2021/04/20 04:26:09;;;;;;;3.27;2.22;;;;;;;18.93;51.74;100109.36;1695672;83;21314;-58
2021/04/20 04:28:36;;;;;;;4.00;1.90;;;;;;;18.98;51.72;100116.10;1683260;83;21225;-60
2021/04/20 04:31:04;;;;;;;2.70;2.08;;;;;;;19.05;51.65;100114.26;1736352;82;21174;-58
2021/04/20 04:33:31;;;;;;;2.77;2.20;;;;;;;19.10;51.62;100113.51;1700488;83;21041;-58
2021/04/20 04:35:57;;;;;;;2.70;2.02;;;;;;;19.13;51.60;100112.06;1699253;83;21225;-59
2021/04/20 04:38:24;;;;;;;3.00;2.17;;;;;;;19.16;51.57;100108.66;1739692;82;22178;-58
2021/04/20 04:40:50;;;;;;;3.70;2.30;;;;;;;19.20;51.51;100120.66;1686543;82;21242;-58
2021/04/20 04:43:16;;;;;;;3.40;2.15;;;;;;;19.24;51.51;100116.67;1722715;82;21213;-58
2021/04/20 04:45:43;;;;;;;2.50;2.00;;;;;;;19.26;51.50;100119.94;1721425;83;21593;-58
2021/04/20 04:48:10;;;;;;;3.58;2.05;;;;;;;19.30;51.45;100119.53;1713146;82;21190;-58
2021/04/20 04:50:40;;;;;;;2.70;1.92;;;;;;;19.34;51.42;100124.63;1694193;83;21214;-58
2021/04/20 04:53:07;;;;;;;3.85;2.35;;;;;;;19.36;51.42;100124.54;1709674;82;21158;-58
2021/04/20 04:55:34;;;;;;;2.20;1.90;;;;;;;19.40;51.39;100126.89;1734576;82;21533;-58
2021/04/20 04:58:00;;;;;;;2.58;1.98;;;;;;;19.47;51.36;100125.06;1686162;82;21178;-60
2021/04/20 05:00:27;;;;;;;2.37;1.77;;;;;;;19.51;51.33;100130.17;1700616;83;21207;-58
2021/04/20 05:02:54;;;;;;;2.52;2.20;;;;;;;19.56;51.28;100132.77;1713413;82;21213;-58
2021/04/20 05:05:20;;;;;;;2.80;2.20;;;;;;;19.60;51.23;100131.76;1705993;82;21185;-59
2021/04/20 05:07:47;;;;;;;2.62;2.00;;;;;;;19.65;51.19;100139.66;1700153;83;21233;-58
2021/04/20 05:10:14;;;;;;;3.33;2.00;;;;;;;19.68;51.15;100140.38;1711455;82;21572;-59
2021/04/20 05:12:40;;;;;;;3.05;2.10;;;;;;;19.71;51.12;100140.52;1705554;82;21201;-58
2021/04/20 05:15:15;;;;;;;3.47;2.12;;;;;;;19.74;51.06;100143.19;1694200;82;21600;-58
2021/04/20 05:17:44;;;;;;;2.47;1.87;;;;;;;19.76;51.04;100145.87;1737898;82;21990;-58
2021/04/20 05:20:13;;;;;;;2.70;2.30;;;;;;;19.77;51.01;100144.74;1683428;82;21205;-58
2021/04/20 05:22:39;;;;;;;2.70;1.80;;;;;;;19.80;51.00;100141.32;1689104;82;21143;-58
2021/04/20 05:25:09;;;;;;;2.77;1.82;;;;;;;19.84;50.99;100150.56;1710631;82;21114;-58
2021/04/20 05:27:36;;;;;;;2.97;1.60;;;;;;;19.93;50.92;100150.55;1715613;81;21201;-58
2021/04/20 05:30:04;;;;;;;2.85;2.05;;;;;;;19.93;50.92;100150.55;1719876;82;21232;-58
2021/04/20 05:32:32;;;;;;;2.40;1.87;;;;;;;19.97;50.88;100150.95;1719767;82;21129;-58
2021/04/20 05:35:00;;;;;;;2.90;2.00;;;;;;;20.00;50.83;100148.89;1720639;82;21165;-58
2021/04/20 05:37:36;;;;;;;3.67;2.17;;;;;;;20.03;50.79;100144.66;1697518;83;21229;-58
2021/04/20 05:40:10;;;;;;;2.58;2.20;;;;;;;20.04;50.77;100148.48;1722658;82;22199;-58
2021/04/20 05:42:37;;;;;;;3.27;2.10;;;;;;;20.06;50.73;100150.35;1728242;82;21177;-58
2021/04/20 05:45:06;;;;;;;2.27;1.85;;;;;;;20.07;50.74;100155.31;1706994;83;21170;-58
2021/04/20 05:47:33;;;;;;;3.10;2.40;;;;;;;20.07;50.72;100159.45;1728631;82;21149;-58
2021/04/20 05:50:01;;;;;;;3.12;2.17;;;;;;;20.07;50.69;100156.69;1686135;83;21573;-58
2021/04/20 05:52:28;;;;;;;3.35;1.85;;;;;;;20.08;50.71;100155.53;1698683;83;21268;-58
2021/04/20 05:54:57;;;;;;;2.75;1.82;;;;;;;20.10;50.71;100155.21;1726964;82;21188;-58
2021/04/20 05:57:24;;;;;;;2.72;2.10;;;;;;;20.12;50.69;100159.81;1723219;81;21200;-58
2021/04/20 05:59:54;;;;;;;3.02;2.15;;;;;;;20.12;50.67;100160.62;1709601;82;21107;-58
2021/04/20 06:02:21;;;;;;;3.47;2.17;;;;;;;20.13;50.65;100165.59;1723333;82;21192;-58
2021/04/20 06:04:50;;;;;;;3.42;2.00;;;;;;;20.14;50.63;100165.84;1727032;82;21267;-58
2021/04/20 06:07:16;;;;;;;2.72;2.05;;;;;;;20.13;50.64;100168.34;1662349;83;21582;-58
2021/04/20 06:09:45;;;;;;;2.85;2.15;;;;;;;20.12;50.65;100170.86;1725098;82;21140;-58
2021/04/20 06:12:12;;;;;;;2.67;2.00;;;;;;;20.10;50.66;100169.02;1708198;82;21245;-58
2021/04/20 06:14:39;;;;;;;2.65;2.15;;;;;;;20.08;50.68;100171.53;1726552;82;21157;-58
2021/04/20 06:17:08;;;;;;;2.55;1.92;;;;;;;20.06;50.68;100168.30;1704130;83;21169;-58
2021/04/20 06:19:37;;;;;;;2.77;2.22;;;;;;;20.06;50.69;100173.83;1702063;83;21130;-58
2021/04/20 06:22:05;;;;;;;2.80;1.90;;;;;;;20.05;50.70;100168.05;1726890;82;21622;-58
2021/04/20 06:24:31;;;;;;;4.08;2.12;;;;;;;20.06;50.70;100168.30;1727449;82;21217;-58
2021/04/20 06:26:58;;;;;;;2.95;2.30;;;;;;;20.06;50.69;100172.45;1696667;83;21217;-58
2021/04/20 06:29:27;;;;;;;2.92;2.22;;;;;;;20.08;50.67;100177.62;1735277;82;21489;-58
2021/04/20 06:31:53;;;;;;;3.60;2.17;;;;;;;20.07;50.66;100174.64;1736712;82;21161;-58
2021/04/20 06:34:21;;;;;;;4.28;2.37;;;;;;;20.07;50.66;100181.55;1705922;83;21397;-58
2021/04/20 06:36:48;;;;;;;2.58;2.02;;;;;;;20.05;50.68;100176.34;1737258;82;21591;-58
2021/04/20 06:39:14;;;;;;;4.22;2.58;;;;;;;20.05;50.68;100185.19;1713790;82;21145;-58
2021/04/20 06:41:42;;;;;;;3.10;2.30;;;;;;;20.04;50.71;100182.18;1690198;82;21214;-59
2021/04/20 06:44:33;;;;;;;3.20;2.33;;;;;;;20.02;50.71;100188.05;1701602;82;21166;-59
2021/04/20 06:47:18;;;;;;;3.92;2.45;;;;;;;19.99;50.73;100180.40;1711715;82;21240;-58
2021/04/20 06:49:52;;;;;;;3.52;2.70;;;;;;;19.98;50.77;100178.80;1718042;82;21161;-58
2021/04/20 06:52:32;;;;;;;3.55;2.12;;;;;;;20.04;50.77;100180.80;1840375;76;22709;-57
2021/04/20 06:55:08;;;;;;;3.45;2.40;;;;;;;19.97;50.76;100179.94;1807724;77;21112;-58
2021/04/20 06:57:41;;;;;;;3.67;2.47;;;;;;;19.98;50.78;100180.19;1806004;77;21184;-57
2021/04/20 07:00:14;;;;;;;3.87;2.15;;;;;;;19.98;50.75;100184.33;1803946;77;21055;-58
2021/04/20 07:03:22;;;;;;;3.62;2.52;;;;;;;19.97;50.75;100184.08;1807744;77;21081;-58
2021/04/20 07:05:56;;;;;;;4.62;3.27;;;;;;;19.96;50.76;100187.16;1805992;77;21182;-57
2021/04/20 07:08:45;;;;;;;6.97;4.10;;;;;;;19.94;50.77;100181.16;1812461;77;21144;-57
2021/04/20 07:11:14;;;;;;;6.55;4.67;;;;;;;19.92;50.79;100188.39;1807424;77;21416;-58
2021/04/20 07:13:46;;;;;;;6.87;5.30;;;;;;;19.90;50.80;100187.10;1806456;77;21036;-57
2021/04/20 07:16:27;;;;;;;8.78;5.72;;;;;;;19.90;50.83;100187.89;1799261;77;21185;-58
2021/04/20 07:19:11;;;;;;;10.55;6.78;;;;;;;19.90;50.86;100190.65;1805704;77;21623;-57
2021/04/20 07:22:03;;;;;;;9.40;6.00;;;;;;;19.91;50.86;100189.52;1812188;78;21091;-58
2021/04/20 07:24:52;;;;;;;10.25;6.53;;;;;;;19.92;50.85;100189.77;1802071;77;21228;-58
2021/04/20 07:27:45;;;;;;;13.48;8.13;;;;;;;19.92;50.84;100181.48;1799949;77;21168;-56
2021/04/20 07:30:19;;;;;;;14.00;8.75;;;;;;;19.93;50.84;100193.34;1807667;77;21164;-57
2021/04/20 07:33:03;;;;;;;17.07;9.90;;;;;;;19.92;50.83;100192.53;1800054;78;21127;-57
2021/04/20 07:35:37;;;;;;;18.00;9.95;;;;;;;19.91;50.82;100196.42;1809199;78;21151;-57
2021/04/20 07:38:44;;;;;;;17.98;10.43;;;;;;;19.92;50.85;100198.61;1807500;77;22279;-57
2021/04/20 07:41:28;;;;;;;17.50;10.72;;;;;;;19.91;50.85;100195.60;1810276;77;21213;-57
2021/04/20 07:44:24;;;;;;;18.02;10.38;;;;;;;19.89;50.87;100195.95;1804848;77;21128;-58
2021/04/20 07:46:55;;;;;;;18.35;10.45;;;;;;;19.89;50.88;100200.66;1805915;77;21163;-58
2021/04/20 07:49:54;;;;;;;15.55;10.18;;;;;;;19.90;50.88;100198.93;1807734;77;21112;-58
2021/04/20 07:52:34;;;;;;;18.80;10.82;;;;;;;19.90;50.87;100199.52;1813022;76;21233;-56
2021/04/20 07:55:20;;;;;;;22.50;12.10;;;;;;;19.88;50.88;100198.46;1816878;77;21208;-57
2021/04/20 07:57:56;;;;;;;17.60;11.75;;;;;;;19.89;50.88;100202.03;1813686;77;21125;-56
2021/04/20 08:00:35;;;;;;;17.57;11.22;;;;;;;19.87;50.89;100202.35;1754209;80;21247;-57
2021/04/20 08:03:19;;;;;;;16.50;11.78;;;;;;;19.85;50.92;100203.27;1756844;80;21196;-58
2021/04/20 08:06:02;;;;;;;19.48;11.85;;;;;;;19.85;50.94;100205.21;1749005;80;21223;-57
2021/04/20 08:08:46;;;;;;;18.40;11.97;;;;;;;19.85;50.97;100214.31;1792278;77;21204;-57
2021/04/20 08:11:37;;;;;;;19.00;11.12;;;;;;;19.85;50.96;100214.31;1791600;77;21554;-57
2021/04/20 08:14:17;;;;;;;21.35;12.05;;;;;;;19.87;50.97;100212.58;1795741;77;21197;-57
2021/04/20 08:17:06;;;;;;;19.87;11.57;;;;;;;19.88;50.96;100213.64;1801559;78;21217;-57
2021/04/20 08:19:55;;;;;;;19.07;12.45;;;;;;;19.90;50.95;100218.25;1771311;79;21217;-57
2021/04/20 08:22:21;;;;;;;17.40;11.53;;;;;;;19.92;50.93;100216.56;1786323;77;21425;-57
2021/04/20 08:25:02;;;;;;;17.73;11.48;;;;;;;19.93;50.90;100216.24;1798665;77;21175;-57
2021/04/20 08:28:02;;;;;;;16.23;10.65;;;;;;;19.93;50.90;100218.19;1747772;80;21219;-57
2021/04/20 08:30:55;;;;;;;16.67;11.40;;;;;;;19.93;50.90;100217.63;1795599;79;21194;-58
2021/04/20 08:33:25;;;;;;;15.83;10.68;;;;;;;19.93;50.90;100225.09;1783321;80;23492;-57
2021/04/20 08:35:57;;;;;;;17.73;10.55;;;;;;;19.92;50.88;100221.52;1799904;77;21600;-58
2021/04/20 08:39:03;;;;;;;17.82;11.05;;;;;;;19.91;50.89;100223.21;1803472;77;21425;-57
2021/04/20 08:44:57;;;;;;;17.55;11.40;;;;;;;19.92;50.91;100220.13;1761421;79;21130;-58
2021/04/20 08:47:38;;;;;;;14.90;10.48;;;;;;;19.93;50.89;100219.57;1764812;79;21797;-57
2021/04/20 08:50:14;;;;;;;15.45;10.28;;;;;;;19.95;50.86;100220.85;1766043;79;21162;-57
2021/04/20 08:53:05;;;;;;;17.37;11.30;;;;;;;19.97;50.84;100220.53;1766983;79;21193;-58
2021/04/20 08:55:53;;;;;;;18.27;11.65;;;;;;;19.97;50.81;100228.25;1768966;79;20996;-57
2021/04/20 08:58:54;;;;;;;17.23;10.75;;;;;;;19.98;50.80;100233.20;1766180;79;21142;-57
2021/04/20 09:01:39;;;;;;;;;;;;;;;19.98;50.79;100235.97;1769743;79;21177;-57
2021/04/20 09:04:34;;;;;;;16.60;10.63;;;;;;;19.97;50.80;100230.20;1767142;79;21905;-57
2021/04/20 09:07:25;;;;;;;15.45;11.00;;;;;;;19.96;50.80;100225.80;1747633;80;21038;-58
2021/04/20 09:09:51;;;;;;;15.88;10.93;;;;;;;19.96;50.77;100231.33;1772052;79;21173;-58
2021/04/20 09:12:17;;;;;;;18.55;11.75;;;;;;;19.96;50.77;100229.95;1767566;79;21189;-57
2021/04/20 09:14:44;;;;;;;15.70;10.50;;;;;;;19.98;50.79;100229.88;1768099;79;21426;-58
2021/04/20 09:17:17;;;;;;;19.75;11.33;;;;;;;20.01;50.78;100229.78;1749035;80;21899;-57
2021/04/20 09:19:57;;;;;;;17.12;11.03;;;;;;;20.03;50.75;100226.11;1767762;79;21142;-58
2021/04/20 09:22:38;;;;;;;17.82;11.43;;;;;;;20.05;50.74;100234.89;1768012;79;21158;-58
2021/04/20 09:25:24;;;;;;;14.85;10.90;;;;;;;20.05;50.71;100231.56;1768443;79;21110;-59
2021/04/20 09:28:11;;;;;;;16.00;11.65;;;;;;;20.03;50.71;100226.92;1767127;79;21557;-58
2021/04/20 09:30:46;;;;;;;18.55;12.40;;;;;;;20.02;50.70;100224.52;1766860;79;21121;-59
2021/04/20 09:33:20;;;;;;;18.87;12.07;;;;;;;20.01;50.70;100225.64;1763981;79;21133;-59
2021/04/20 09:35:46;;;;;;;17.67;11.95;;;;;;;20.00;50.70;100226.21;1764567;80;21258;-58
2021/04/20 09:38:13;;;;;;;17.17;12.18;;;;;;;19.99;50.71;100222.38;1765634;79;21529;-58
2021/04/20 09:40:43;;;;;;;16.30;11.40;;;;;;;20.00;50.71;100221.25;1743558;80;22474;-58
2021/04/20 09:43:25;;;;;;;15.83;10.28;;;;;;;20.03;50.74;100220.59;1751589;80;21158;-58
2021/04/20 09:45:59;;;;;;;15.13;10.35;;;;;;;20.09;50.71;100217.91;1773421;79;21418;-58
2021/04/20 09:49:10;;;;;;;18.67;10.38;;;;;;;20.16;50.62;100224.30;1746906;80;21250;-58
2021/04/20 09:51:47;;;;;;;15.97;10.63;;;;;;;20.23;50.55;100226.82;1730163;81;21271;-58
2021/04/20 09:54:25;;;;;;;14.30;9.93;;;;;;;20.32;50.45;100226.83;1770942;79;21043;-58
2021/04/20 09:56:54;;;;;;;15.10;10.70;;;;;;;20.38;50.37;100233.78;1769709;79;21584;-58
2021/04/20 09:59:57;;;;;;;15.63;10.58;;;;;;;20.45;50.27;100225.22;1770512;79;21221;-58
2021/04/20 10:02:55;;;;;;;16.70;9.98;;;;;;;20.51;50.20;100230.01;1750912;80;21817;-58
2021/04/20 10:05:52;;;;;;;13.83;9.55;;;;;;;20.55;50.13;100225.44;1752090;80;21212;-58
2021/04/20 10:08:59;;;;;;;14.68;9.18;;;;;;;20.62;50.03;100226.32;1768759;79;21497;-58
2021/04/20 10:12:09;;;;;;;11.38;7.67;;;;;;;20.66;49.96;100218.98;1771618;79;21187;-58
2021/04/20 10:15:04;;;;;;;12.00;8.20;;;;;;;20.72;49.87;100219.84;1767285;79;21189;-58
2021/04/20 10:18:00;;;;;;;12.98;7.87;;;;;;;20.79;49.76;100229.02;1772020;79;21114;-58
2021/04/20 10:21:14;;;;;;;11.08;8.15;;;;;;;20.83;49.66;100226.63;1773304;79;21129;-58
2021/04/20 10:24:17;;;;;;;12.50;8.73;;;;;;;20.86;49.58;100215.47;1773812;79;21640;-58
2021/04/20 10:27:14;;;;;;;11.48;8.35;;;;;;;20.88;49.48;100213.16;1773703;79;21937;-58
2021/04/20 10:30:02;;;;;;;11.05;8.03;;;;;;;20.86;49.43;100221.81;1774139;79;22275;-58
2021/04/20 10:32:33;;;;;;;8.95;7.33;;;;;;;20.85;49.39;100229.05;1773844;79;21754;-58
2021/04/20 10:35:00;;;;;;;10.32;7.08;;;;;;;20.83;49.40;100231.34;1774263;79;21596;-58
2021/04/20 10:37:37;;;;;;;12.68;8.63;;;;;;;20.80;49.42;100231.99;1773961;79;21604;-58
2021/04/20 10:40:13;;;;;;;10.13;6.92;;;;;;;20.80;49.43;100243.86;1775969;79;21189;-58
2021/04/20 10:43:11;;;;;;;11.15;7.60;;;;;;;20.83;49.41;100246.55;1773691;79;21105;-58
2021/04/20 10:45:41;;;;;;;10.65;6.40;;;;;;;20.87;49.43;100246.95;1763136;80;21224;-58
2021/04/20 10:48:09;;;;;;;12.57;7.60;;;;;;;20.92;49.41;100239.81;1764499;80;21240;-57
2021/04/20 10:50:38;;;;;;;10.58;6.80;;;;;;;20.97;49.38;100241.02;1775610;80;21814;-58
2021/04/20 10:53:30;;;;;;;9.53;6.75;;;;;;;21.05;49.34;100246.86;1762682;80;21164;-58
2021/04/20 10:56:08;;;;;;;11.18;7.08;;;;;;;21.09;49.29;100245.04;1766307;79;21606;-58
2021/04/20 10:58:36;;;;;;;9.20;6.53;;;;;;;21.13;49.25;100244.04;1765719;80;21318;-58
2021/04/20 11:01:03;;;;;;;8.65;6.87;;;;;;;21.16;49.18;100248.11;1745379;80;21176;-57
2021/04/20 11:03:34;;;;;;;9.80;6.50;;;;;;;21.19;49.14;100241.90;1762005;80;21176;-58
2021/04/20 11:06:02;;;;;;;10.35;6.67;;;;;;;21.19;49.13;100238.56;1769693;80;21205;-58
2021/04/20 11:08:48;;;;;;;6.92;5.90;;;;;;;21.21;49.12;100231.33;1763963;80;21191;-58
2021/04/20 11:11:20;;;;;;;7.78;5.72;;;;;;;21.22;49.10;100229.59;1763541;80;21220;-58
2021/04/20 11:13:48;;;;;;;8.15;6.40;;;;;;;21.25;49.09;100229.51;1762660;80;21227;-58
2021/04/20 11:16:33;;;;;;;9.38;6.62;;;;;;;21.28;49.06;100233.80;1767102;80;21199;-58
2021/04/20 11:19:05;;;;;;;7.60;6.00;;;;;;;21.32;49.05;100232.54;1747737;80;21014;-58
2021/04/20 11:21:36;;;;;;;7.90;5.62;;;;;;;21.35;49.00;100237.39;1769671;80;21164;-58
2021/04/20 11:24:20;;;;;;;7.25;5.95;;;;;;;21.35;48.98;100233.25;1771284;80;21176;-58
2021/04/20 11:26:58;;;;;;;7.30;5.67;;;;;;;21.35;48.96;100236.02;1771667;80;21785;-58
2021/04/20 11:29:30;;;;;;;7.87;5.58;;;;;;;21.30;48.95;100237.62;1772871;79;21250;-58
2021/04/20 11:31:57;;;;;;;7.12;5.42;;;;;;;21.26;48.97;100236.67;1765088;80;21882;-58
2021/04/20 11:34:28;;;;;;;8.85;5.83;;;;;;;21.21;49.02;100243.77;1761456;80;21211;-58
2021/04/20 11:37:05;;;;;;;6.92;5.15;;;;;;;21.16;49.05;100234.28;1768631;80;22053;-58
2021/04/20 11:39:45;;;;;;;10.15;5.97;;;;;;;21.12;49.11;100239.67;1766272;80;21184;-58
2021/04/20 11:42:14;;;;;;;7.90;5.45;;;;;;;21.10;49.16;100246.64;1746659;80;22109;-58
2021/04/20 11:44:47;;;;;;;7.72;5.92;;;;;;;21.08;49.20;100241.46;1774135;80;21192;-58
2021/04/20 11:47:13;;;;;;;7.72;5.53;;;;;;;21.08;49.23;100231.78;1761236;80;21223;-58
2021/04/20 11:49:57;;;;;;;6.92;5.25;;;;;;;21.09;49.22;100233.37;1768939;80;21922;-58
2021/04/20 11:52:27;;;;;;;7.42;5.33;;;;;;;21.10;49.23;100235.01;1758202;80;21618;-58
2021/04/20 11:55:08;;;;;;;8.08;5.75;;;;;;;21.10;49.22;100235.01;1763370;80;21599;-59
2021/04/20 11:57:38;;;;;;;8.85;5.85;;;;;;;21.08;49.24;100237.88;1755810;80;21610;-58